sensor_id;sensor_type;location;lat;lon;timestamp;pressure;altitude;pressure_sealevel;temperature;humidity
71344;BME280;59146;43.850;25.948;2023-08-31T00:01:28;100300.75;;;23.18;89.75
71344;BME280;59146;43.850;25.948;2023-08-31T00:03:54;100236.78;;;22.80;89.42
71344;BME280;59146;43.850;25.948;2023-08-31T00:06:19;100283.09;;;23.17;88.36
71344;BME280;59146;43.850;25.948;2023-08-31T00:08:47;100291.81;;;23.11;89.17
71344;BME280;59146;43.850;25.948;2023-08-31T00:11:12;100324.41;;;23.21;88.15
71344;BME280;59146;43.850;25.948;2023-08-31T00:13:40;100310.19;;;23.06;88.11
71344;BME280;59146;43.850;25.948;2023-08-31T00:16:05;100252.22;;;22.54;88.38
71344;BME280;59146;43.850;25.948;2023-08-31T00:18:31;100268.16;;;22.62;88.79
71344;BME280;59146;43.850;25.948;2023-08-31T00:20:56;100345.78;;;23.05;89.23
71344;BME280;59146;43.850;25.948;2023-08-31T00:23:22;100304.94;;;22.89;88.72
71344;BME280;59146;43.850;25.948;2023-08-31T00:25:47;100293.09;;;22.69;89.42
71344;BME280;59146;43.850;25.948;2023-08-31T00:28:13;100338.50;;;22.99;89.71
71344;BME280;59146;43.850;25.948;2023-08-31T00:30:40;100284.44;;;22.67;89.62
71344;BME280;59146;43.850;25.948;2023-08-31T00:33:07;100347.41;;;23.14;89.08
71344;BME280;59146;43.850;25.948;2023-08-31T00:35:33;100292.38;;;22.75;88.59
71344;BME280;59146;43.850;25.948;2023-08-31T00:37:59;100256.69;;;22.54;88.55
71344;BME280;59146;43.850;25.948;2023-08-31T00:40:26;100303.03;;;22.75;88.58
71344;BME280;59146;43.850;25.948;2023-08-31T00:42:51;100321.56;;;22.91;88.92
71344;BME280;59146;43.850;25.948;2023-08-31T00:45:17;100334.31;;;23.04;88.51
71344;BME280;59146;43.850;25.948;2023-08-31T00:47:45;100308.81;;;22.79;88.56
71344;BME280;59146;43.850;25.948;2023-08-31T00:50:12;100333.84;;;23.01;88.77
71344;BME280;59146;43.850;25.948;2023-08-31T00:52:38;100337.28;;;23.09;88.42
71344;BME280;59146;43.850;25.948;2023-08-31T00:55:04;100335.38;;;22.95;88.19
71344;BME280;59146;43.850;25.948;2023-08-31T00:57:30;100329.19;;;22.72;88.96
71344;BME280;59146;43.850;25.948;2023-08-31T00:59:56;100351.56;;;22.85;89.89
71344;BME280;59146;43.850;25.948;2023-08-31T01:05:49;100350.88;;;22.91;89.91
71344;BME280;59146;43.850;25.948;2023-08-31T01:08:36;100296.34;;;22.49;89.18
71344;BME280;59146;43.850;25.948;2023-08-31T01:13:44;100350.44;;;22.80;89.70
71344;BME280;59146;43.850;25.948;2023-08-31T01:16:14;100341.63;;;22.79;89.45
71344;BME280;59146;43.850;25.948;2023-08-31T01:18:41;100333.69;;;22.71;88.93
71344;BME280;59146;43.850;25.948;2023-08-31T01:23:55;100330.38;;;22.69;90.17
71344;BME280;59146;43.850;25.948;2023-08-31T01:26:22;100294.31;;;22.51;89.79
71344;BME280;59146;43.850;25.948;2023-08-31T01:28:49;100307.44;;;22.52;90.43
71344;BME280;59146;43.850;25.948;2023-08-31T01:31:15;100266.50;;;22.23;90.38
71344;BME280;59146;43.850;25.948;2023-08-31T01:37:05;100378.56;;;22.82;89.92
71344;BME280;59146;43.850;25.948;2023-08-31T01:39:41;100354.16;;;22.71;89.78
71344;BME280;59146;43.850;25.948;2023-08-31T01:42:11;100380.84;;;22.94;88.44
71344;BME280;59146;43.850;25.948;2023-08-31T01:44:39;100328.28;;;22.49;88.91
71344;BME280;59146;43.850;25.948;2023-08-31T01:47:06;100237.03;;;21.93;89.08
71344;BME280;59146;43.850;25.948;2023-08-31T01:49:41;100375.44;;;22.71;88.94
71344;BME280;59146;43.850;25.948;2023-08-31T01:52:08;100378.56;;;22.82;89.28
71344;BME280;59146;43.850;25.948;2023-08-31T01:54:34;100280.38;;;22.02;90.41
71344;BME280;59146;43.850;25.948;2023-08-31T01:56:59;100379.31;;;22.52;91.47
71344;BME280;59146;43.850;25.948;2023-08-31T01:59:25;100375.81;;;22.68;90.73
71344;BME280;59146;43.850;25.948;2023-08-31T02:01:52;100383.59;;;22.69;90.41
71344;BME280;59146;43.850;25.948;2023-08-31T02:04:17;100315.94;;;22.48;89.62
71344;BME280;59146;43.850;25.948;2023-08-31T02:06:42;100369.00;;;22.96;88.34
71344;BME280;59146;43.850;25.948;2023-08-31T02:09:08;100367.47;;;23.02;88.51
71344;BME280;59146;43.850;25.948;2023-08-31T02:11:33;100350.28;;;23.04;87.43
71344;BME280;59146;43.850;25.948;2023-08-31T02:14:03;100343.84;;;22.99;87.03
71344;BME280;59146;43.850;25.948;2023-08-31T02:16:30;100363.66;;;23.27;86.18
71344;BME280;59146;43.850;25.948;2023-08-31T02:18:55;100301.63;;;22.87;85.89
71344;BME280;59146;43.850;25.948;2023-08-31T02:21:20;100314.59;;;22.90;86.47
71344;BME280;59146;43.850;25.948;2023-08-31T02:23:46;100320.91;;;22.89;86.72
71344;BME280;59146;43.850;25.948;2023-08-31T02:26:12;100340.53;;;22.97;87.31
71344;BME280;59146;43.850;25.948;2023-08-31T02:28:37;100298.06;;;22.72;87.99
71344;BME280;59146;43.850;25.948;2023-08-31T02:31:03;100350.19;;;22.98;88.21
71344;BME280;59146;43.850;25.948;2023-08-31T02:33:28;100293.78;;;22.63;87.70
71344;BME280;59146;43.850;25.948;2023-08-31T02:35:55;100310.38;;;22.73;88.30
71344;BME280;59146;43.850;25.948;2023-08-31T02:38:21;100294.13;;;22.60;87.90
71344;BME280;59146;43.850;25.948;2023-08-31T02:40:46;100317.31;;;22.82;87.07
71344;BME280;59146;43.850;25.948;2023-08-31T02:43:13;100342.66;;;23.01;86.95
71344;BME280;59146;43.850;25.948;2023-08-31T02:45:38;100305.31;;;22.86;86.22
71344;BME280;59146;43.850;25.948;2023-08-31T02:48:06;100300.31;;;22.83;85.39
71344;BME280;59146;43.850;25.948;2023-08-31T02:50:33;100316.75;;;22.95;85.95
71344;BME280;59146;43.850;25.948;2023-08-31T02:52:59;100322.13;;;22.87;86.04
71344;BME280;59146;43.850;25.948;2023-08-31T02:55:24;100307.31;;;22.84;86.06
71344;BME280;59146;43.850;25.948;2023-08-31T02:57:49;100358.13;;;23.06;86.36
71344;BME280;59146;43.850;25.948;2023-08-31T03:00:15;100266.03;;;22.50;86.29
71344;BME280;59146;43.850;25.948;2023-08-31T03:02:41;100308.69;;;22.80;86.90
71344;BME280;59146;43.850;25.948;2023-08-31T03:05:08;100328.56;;;22.92;86.24
71344;BME280;59146;43.850;25.948;2023-08-31T03:07:34;100300.56;;;22.74;86.76
71344;BME280;59146;43.850;25.948;2023-08-31T03:10:00;100369.00;;;22.96;87.25
71344;BME280;59146;43.850;25.948;2023-08-31T03:12:25;100301.78;;;22.55;87.58
71344;BME280;59146;43.850;25.948;2023-08-31T03:14:50;100326.34;;;22.73;87.87
71344;BME280;59146;43.850;25.948;2023-08-31T03:17:16;100381.09;;;23.07;88.13
71344;BME280;59146;43.850;25.948;2023-08-31T03:19:41;100392.88;;;23.12;88.17
71344;BME280;59146;43.850;25.948;2023-08-31T03:22:07;100357.22;;;22.90;88.73
71344;BME280;59146;43.850;25.948;2023-08-31T03:24:33;100341.22;;;22.90;88.48
71344;BME280;59146;43.850;25.948;2023-08-31T03:26:58;100353.00;;;22.96;88.59
71344;BME280;59146;43.850;25.948;2023-08-31T03:29:24;100360.78;;;23.06;88.22
71344;BME280;59146;43.850;25.948;2023-08-31T03:31:49;100359.22;;;22.88;88.97
71344;BME280;59146;43.850;25.948;2023-08-31T03:34:14;100371.13;;;23.01;89.84
71344;BME280;59146;43.850;25.948;2023-08-31T03:36:40;100352.59;;;22.84;90.02
71344;BME280;59146;43.850;25.948;2023-08-31T03:39:06;100361.19;;;22.95;90.68
71344;BME280;59146;43.850;25.948;2023-08-31T03:41:31;100391.41;;;23.10;90.84
71344;BME280;59146;43.850;25.948;2023-08-31T03:43:56;100351.84;;;22.68;91.92
71344;BME280;59146;43.850;25.948;2023-08-31T03:46:22;100317.91;;;22.54;92.14
71344;BME280;59146;43.850;25.948;2023-08-31T03:48:47;100407.47;;;22.94;91.71
71344;BME280;59146;43.850;25.948;2023-08-31T03:51:13;100327.28;;;22.42;92.30
71344;BME280;59146;43.850;25.948;2023-08-31T03:53:38;100408.50;;;22.84;92.54
71344;BME280;59146;43.850;25.948;2023-08-31T03:56:04;100326.16;;;22.36;92.52
71344;BME280;59146;43.850;25.948;2023-08-31T03:58:30;100408.78;;;22.98;91.84
71344;BME280;59146;43.850;25.948;2023-08-31T04:00:56;100395.72;;;22.80;91.99
71344;BME280;59146;43.850;25.948;2023-08-31T04:03:50;100431.75;;;22.99;92.65
71344;BME280;59146;43.850;25.948;2023-08-31T04:06:58;100425.97;;;22.87;93.12
71344;BME280;59146;43.850;25.948;2023-08-31T04:09:23;100402.28;;;22.61;93.56
71344;BME280;59146;43.850;25.948;2023-08-31T04:11:49;100382.88;;;22.37;93.83
71344;BME280;59146;43.850;25.948;2023-08-31T04:14:14;100339.72;;;22.10;93.74
71344;BME280;59146;43.850;25.948;2023-08-31T04:16:39;100412.94;;;22.61;93.41
71344;BME280;59146;43.850;25.948;2023-08-31T04:19:05;100429.34;;;22.73;92.65
71344;BME280;59146;43.850;25.948;2023-08-31T04:21:31;100431.19;;;22.72;92.63
71344;BME280;59146;43.850;25.948;2023-08-31T04:23:56;100389.63;;;22.55;91.55
71344;BME280;59146;43.850;25.948;2023-08-31T04:26:24;100397.63;;;22.55;91.74
71344;BME280;59146;43.850;25.948;2023-08-31T04:28:50;100429.81;;;22.84;91.68
71344;BME280;59146;43.850;25.948;2023-08-31T04:31:15;100380.28;;;22.67;90.67
71344;BME280;59146;43.850;25.948;2023-08-31T04:33:41;100439.69;;;23.07;90.33
71344;BME280;59146;43.850;25.948;2023-08-31T04:36:06;100396.47;;;22.97;89.78
71344;BME280;59146;43.850;25.948;2023-08-31T04:38:33;100402.47;;;22.90;90.37
71344;BME280;59146;43.850;25.948;2023-08-31T04:40:59;100410.47;;;22.90;90.13
71344;BME280;59146;43.850;25.948;2023-08-31T04:43:25;100424.03;;;23.12;89.46
71344;BME280;59146;43.850;25.948;2023-08-31T04:45:52;100411.59;;;22.96;89.94
71344;BME280;59146;43.850;25.948;2023-08-31T04:48:18;100460.75;;;23.32;89.62
71344;BME280;59146;43.850;25.948;2023-08-31T04:50:43;100452.41;;;23.35;88.59
71344;BME280;59146;43.850;25.948;2023-08-31T04:53:09;100433.00;;;23.19;88.57
71344;BME280;59146;43.850;25.948;2023-08-31T04:55:34;100446.59;;;23.24;89.32
71344;BME280;59146;43.850;25.948;2023-08-31T04:58:00;100481.81;;;23.42;89.82
71344;BME280;59146;43.850;25.948;2023-08-31T05:00:26;100478.56;;;23.24;88.32
71344;BME280;59146;43.850;25.948;2023-08-31T05:02:51;100377.16;;;22.56;90.42
71344;BME280;59146;43.850;25.948;2023-08-31T05:05:19;100419.06;;;23.01;89.33
71344;BME280;59146;43.850;25.948;2023-08-31T05:07:44;100474.13;;;23.47;86.89
71344;BME280;59146;43.850;25.948;2023-08-31T05:10:10;100447.25;;;23.56;85.04
71344;BME280;59146;43.850;25.948;2023-08-31T05:12:35;100460.16;;;23.90;83.55
71344;BME280;59146;43.850;25.948;2023-08-31T05:15:01;100469.19;;;23.89;84.16
71344;BME280;59146;43.850;25.948;2023-08-31T05:17:28;100489.75;;;23.81;84.80
71344;BME280;59146;43.850;25.948;2023-08-31T05:19:53;100430.25;;;23.35;85.92
71344;BME280;59146;43.850;25.948;2023-08-31T05:22:18;100494.44;;;23.79;85.84
71344;BME280;59146;43.850;25.948;2023-08-31T05:24:44;100484.88;;;23.61;85.33
71344;BME280;59146;43.850;25.948;2023-08-31T05:27:10;100477.28;;;23.50;86.17
71344;BME280;59146;43.850;25.948;2023-08-31T05:29:35;100502.97;;;23.74;85.60
71344;BME280;59146;43.850;25.948;2023-08-31T05:32:00;100486.06;;;23.59;85.83
71344;BME280;59146;43.850;25.948;2023-08-31T05:34:26;100490.72;;;23.57;86.64
71344;BME280;59146;43.850;25.948;2023-08-31T05:36:51;100490.41;;;23.60;86.16
71344;BME280;59146;43.850;25.948;2023-08-31T05:39:17;100472.06;;;23.26;86.17
71344;BME280;59146;43.850;25.948;2023-08-31T05:41:43;100488.91;;;23.27;87.38
71344;BME280;59146;43.850;25.948;2023-08-31T05:44:09;100480.31;;;23.09;87.64
71344;BME280;59146;43.850;25.948;2023-08-31T05:46:35;100496.59;;;23.14;88.54
71344;BME280;59146;43.850;25.948;2023-08-31T05:49:00;100509.47;;;23.10;88.81
71344;BME280;59146;43.850;25.948;2023-08-31T05:51:26;100548.63;;;22.94;91.00
71344;BME280;59146;43.850;25.948;2023-08-31T05:53:52;100502.06;;;22.73;92.55
71344;BME280;59146;43.850;25.948;2023-08-31T05:56:19;100524.94;;;23.07;89.76
71344;BME280;59146;43.850;25.948;2023-08-31T05:58:45;100519.34;;;22.94;91.29
71344;BME280;59146;43.850;25.948;2023-08-31T06:01:10;100521.66;;;22.97;90.79
71344;BME280;59146;43.850;25.948;2023-08-31T06:03:36;100473.44;;;22.75;91.59
71344;BME280;59146;43.850;25.948;2023-08-31T06:06:02;100526.75;;;23.14;90.42
71344;BME280;59146;43.850;25.948;2023-08-31T06:08:27;100513.16;;;23.32;89.70
71344;BME280;59146;43.850;25.948;2023-08-31T06:10:53;100527.19;;;23.64;88.41
71344;BME280;59146;43.850;25.948;2023-08-31T06:13:18;100542.44;;;24.01;85.58
71344;BME280;59146;43.850;25.948;2023-08-31T06:15:44;100495.03;;;23.89;84.31
71344;BME280;59146;43.850;25.948;2023-08-31T06:18:12;100509.63;;;24.23;83.01
71344;BME280;59146;43.850;25.948;2023-08-31T06:20:38;100565.41;;;24.70;80.67
71344;BME280;59146;43.850;25.948;2023-08-31T06:23:03;100548.81;;;24.60;79.70
71344;BME280;59146;43.850;25.948;2023-08-31T06:25:29;100453.50;;;24.31;77.23
71344;BME280;59146;43.850;25.948;2023-08-31T06:27:54;100406.44;;;24.16;77.62
71344;BME280;59146;43.850;25.948;2023-08-31T06:30:19;100547.66;;;25.50;75.32
71344;BME280;59146;43.850;25.948;2023-08-31T06:32:47;100546.63;;;25.37;75.45
71344;BME280;59146;43.850;25.948;2023-08-31T06:35:13;100539.38;;;25.16;74.56
71344;BME280;59146;43.850;25.948;2023-08-31T06:37:40;100567.78;;;25.17;74.55
71344;BME280;59146;43.850;25.948;2023-08-31T06:40:08;100581.25;;;25.09;76.00
71344;BME280;59146;43.850;25.948;2023-08-31T06:42:34;100519.13;;;25.07;74.98
71344;BME280;59146;43.850;25.948;2023-08-31T06:44:59;100519.53;;;25.40;73.10
71344;BME280;59146;43.850;25.948;2023-08-31T06:47:25;100521.25;;;25.62;71.51
71344;BME280;59146;43.850;25.948;2023-08-31T06:49:50;100534.28;;;26.07;70.10
71344;BME280;59146;43.850;25.948;2023-08-31T06:52:16;100535.69;;;26.73;67.41
71344;BME280;59146;43.850;25.948;2023-08-31T06:54:42;100515.66;;;26.97;65.82
71344;BME280;59146;43.850;25.948;2023-08-31T06:57:07;100543.31;;;28.05;63.02
71344;BME280;59146;43.850;25.948;2023-08-31T06:59:33;100508.16;;;27.93;61.90
71344;BME280;59146;43.850;25.948;2023-08-31T07:01:58;100538.59;;;28.33;61.16
71344;BME280;59146;43.850;25.948;2023-08-31T07:04:24;100566.50;;;28.78;60.25
71344;BME280;59146;43.850;25.948;2023-08-31T07:06:49;100530.53;;;28.33;61.18
71344;BME280;59146;43.850;25.948;2023-08-31T07:09:14;100587.13;;;28.12;61.98
71344;BME280;59146;43.850;25.948;2023-08-31T07:11:40;100594.06;;;27.93;62.46
71344;BME280;59146;43.850;25.948;2023-08-31T07:14:05;100547.69;;;27.45;62.95
71344;BME280;59146;43.850;25.948;2023-08-31T07:16:31;100598.47;;;27.53;64.07
71344;BME280;59146;43.850;25.948;2023-08-31T07:18:56;100577.53;;;27.36;62.09
71344;BME280;59146;43.850;25.948;2023-08-31T07:21:22;100546.38;;;27.01;63.19
71344;BME280;59146;43.850;25.948;2023-08-31T07:23:47;100556.53;;;27.05;63.87
71344;BME280;59146;43.850;25.948;2023-08-31T07:26:13;100569.94;;;27.05;65.03
71344;BME280;59146;43.850;25.948;2023-08-31T07:28:39;100577.66;;;27.21;64.40
71344;BME280;59146;43.850;25.948;2023-08-31T07:31:05;100612.66;;;27.13;64.66
71344;BME280;59146;43.850;25.948;2023-08-31T07:33:32;100588.34;;;26.81;65.71
71344;BME280;59146;43.850;25.948;2023-08-31T07:35:58;100559.94;;;26.65;66.01
71344;BME280;59146;43.850;25.948;2023-08-31T07:38:24;100601.50;;;27.10;65.45
71344;BME280;59146;43.850;25.948;2023-08-31T07:40:50;100571.16;;;26.75;65.42
71344;BME280;59146;43.850;25.948;2023-08-31T07:43:17;100614.97;;;27.16;65.25
71344;BME280;59146;43.850;25.948;2023-08-31T07:45:42;100597.00;;;27.17;64.51
71344;BME280;59146;43.850;25.948;2023-08-31T07:48:08;100609.63;;;27.57;62.31
71344;BME280;59146;43.850;25.948;2023-08-31T07:50:33;100577.78;;;27.41;63.88
71344;BME280;59146;43.850;25.948;2023-08-31T07:52:59;100589.28;;;27.01;65.13
71344;BME280;59146;43.850;25.948;2023-08-31T07:55:25;100628.16;;;27.18;64.83
71344;BME280;59146;43.850;25.948;2023-08-31T07:57:50;100590.50;;;26.70;65.31
71344;BME280;59146;43.850;25.948;2023-08-31T08:00:16;100627.53;;;26.67;67.40
71344;BME280;59146;43.850;25.948;2023-08-31T08:02:41;100638.03;;;26.83;66.09
71344;BME280;59146;43.850;25.948;2023-08-31T08:05:07;100638.19;;;26.82;66.13
71344;BME280;59146;43.850;25.948;2023-08-31T08:07:33;100561.69;;;26.51;66.54
71344;BME280;59146;43.850;25.948;2023-08-31T08:09:58;100583.09;;;27.00;66.09
71344;BME280;59146;43.850;25.948;2023-08-31T08:12:25;100610.13;;;27.80;63.39
71344;BME280;59146;43.850;25.948;2023-08-31T08:14:50;100585.06;;;28.14;61.46
71344;BME280;59146;43.850;25.948;2023-08-31T08:17:16;100650.59;;;28.39;60.87
71344;BME280;59146;43.850;25.948;2023-08-31T08:19:41;100587.34;;;27.63;62.77
71344;BME280;59146;43.850;25.948;2023-08-31T08:22:07;100610.97;;;27.81;62.41
71344;BME280;59146;43.850;25.948;2023-08-31T08:24:32;100614.44;;;27.34;63.86
71344;BME280;59146;43.850;25.948;2023-08-31T08:26:58;100589.91;;;27.03;64.78
71344;BME280;59146;43.850;25.948;2023-08-31T08:29:24;100601.22;;;26.98;66.05
71344;BME280;59146;43.850;25.948;2023-08-31T08:31:50;100549.59;;;26.83;64.34
71344;BME280;59146;43.850;25.948;2023-08-31T08:34:15;100645.13;;;27.25;65.79
71344;BME280;59146;43.850;25.948;2023-08-31T08:36:40;100657.66;;;27.45;65.34
71344;BME280;59146;43.850;25.948;2023-08-31T08:39:06;100571.00;;;26.77;65.51
71344;BME280;59146;43.850;25.948;2023-08-31T08:41:32;100593.59;;;26.95;65.09
71344;BME280;59146;43.850;25.948;2023-08-31T08:44:02;100593.56;;;27.23;64.91
71344;BME280;59146;43.850;25.948;2023-08-31T08:46:31;100575.59;;;27.23;63.88
71344;BME280;59146;43.850;25.948;2023-08-31T08:48:58;100598.28;;;27.21;64.84
71344;BME280;59146;43.850;25.948;2023-08-31T08:51:27;100596.25;;;27.29;63.54
71344;BME280;59146;43.850;25.948;2023-08-31T08:53:52;100608.56;;;27.51;63.57
71344;BME280;59146;43.850;25.948;2023-08-31T08:56:18;100569.25;;;27.31;64.44
71344;BME280;59146;43.850;25.948;2023-08-31T08:58:43;100586.06;;;27.52;63.86
71344;BME280;59146;43.850;25.948;2023-08-31T09:01:09;100549.59;;;27.24;63.88
71344;BME280;59146;43.850;25.948;2023-08-31T09:03:35;100632.19;;;27.76;64.07
71344;BME280;59146;43.850;25.948;2023-08-31T09:06:00;100629.84;;;27.53;64.75
71344;BME280;59146;43.850;25.948;2023-08-31T09:08:33;100635.19;;;27.53;64.88
71344;BME280;59146;43.850;25.948;2023-08-31T09:10:58;100596.81;;;27.46;64.39
71344;BME280;59146;43.850;25.948;2023-08-31T09:13:28;100609.59;;;27.50;64.75
71344;BME280;59146;43.850;25.948;2023-08-31T09:15:54;100623.81;;;27.44;65.64
71344;BME280;59146;43.850;25.948;2023-08-31T09:18:27;100609.34;;;27.39;65.26
71344;BME280;59146;43.850;25.948;2023-08-31T09:20:53;100556.28;;;27.34;64.14
71344;BME280;59146;43.850;25.948;2023-08-31T09:23:19;100603.91;;;27.67;64.21
71344;BME280;59146;43.850;25.948;2023-08-31T09:25:50;100627.94;;;27.88;64.51
71344;BME280;59146;43.850;25.948;2023-08-31T09:28:20;100636.59;;;27.90;64.69
71344;BME280;59146;43.850;25.948;2023-08-31T09:30:47;100637.84;;;27.94;64.59
71344;BME280;59146;43.850;25.948;2023-08-31T09:33:18;100568.28;;;27.38;64.52
71344;BME280;59146;43.850;25.948;2023-08-31T09:35:54;100587.41;;;27.29;64.40
71344;BME280;59146;43.850;25.948;2023-08-31T09:38:20;100619.63;;;27.76;64.54
71344;BME280;59146;43.850;25.948;2023-08-31T09:40:46;100607.22;;;27.69;64.34
71344;BME280;59146;43.850;25.948;2023-08-31T09:43:12;100632.13;;;28.03;63.54
71344;BME280;59146;43.850;25.948;2023-08-31T09:45:43;100595.59;;;28.09;63.12
71344;BME280;59146;43.850;25.948;2023-08-31T09:48:09;100610.56;;;27.84;63.88
71344;BME280;59146;43.850;25.948;2023-08-31T09:50:35;100627.72;;;27.89;62.92
71344;BME280;59146;43.850;25.948;2023-08-31T09:53:03;100592.25;;;27.46;63.92
71344;BME280;59146;43.850;25.948;2023-08-31T09:55:31;100622.41;;;27.55;64.37
71344;BME280;59146;43.850;25.948;2023-08-31T09:57:59;100648.34;;;27.89;63.22
71344;BME280;59146;43.850;25.948;2023-08-31T10:00:31;100592.94;;;27.62;63.29
71344;BME280;59146;43.850;25.948;2023-08-31T10:03:01;100611.59;;;27.83;62.55
71344;BME280;59146;43.850;25.948;2023-08-31T10:05:27;100644.16;;;28.27;61.89
71344;BME280;59146;43.850;25.948;2023-08-31T10:07:53;100612.72;;;28.08;62.14
71344;BME280;59146;43.850;25.948;2023-08-31T10:10:19;100629.09;;;28.46;60.06
71344;BME280;59146;43.850;25.948;2023-08-31T10:12:48;100607.00;;;28.50;60.08
71344;BME280;59146;43.850;25.948;2023-08-31T10:15:16;100601.84;;;28.68;59.65
71344;BME280;59146;43.850;25.948;2023-08-31T10:17:42;100615.28;;;28.75;58.31
71344;BME280;59146;43.850;25.948;2023-08-31T10:20:12;100652.09;;;29.07;57.72
71344;BME280;59146;43.850;25.948;2023-08-31T10:22:39;100608.88;;;29.22;56.13
71344;BME280;59146;43.850;25.948;2023-08-31T10:25:06;100617.72;;;29.22;55.14
71344;BME280;59146;43.850;25.948;2023-08-31T10:27:42;100639.84;;;29.31;56.77
71344;BME280;59146;43.850;25.948;2023-08-31T10:32:39;100659.34;;;29.97;54.93
71344;BME280;59146;43.850;25.948;2023-08-31T10:35:07;100620.47;;;29.79;53.03
71344;BME280;59146;43.850;25.948;2023-08-31T10:37:33;100617.41;;;30.14;53.45
71344;BME280;59146;43.850;25.948;2023-08-31T10:40:10;100625.25;;;30.15;51.37
71344;BME280;59146;43.850;25.948;2023-08-31T10:42:45;100586.75;;;30.08;49.97
71344;BME280;59146;43.850;25.948;2023-08-31T10:45:13;100653.38;;;30.57;49.82
71344;BME280;59146;43.850;25.948;2023-08-31T10:47:42;100650.03;;;30.62;49.79
71344;BME280;59146;43.850;25.948;2023-08-31T10:50:19;100641.56;;;30.83;49.06
71344;BME280;59146;43.850;25.948;2023-08-31T10:52:45;100643.84;;;30.86;48.61
71344;BME280;59146;43.850;25.948;2023-08-31T10:55:11;100640.28;;;30.60;50.55
71344;BME280;59146;43.850;25.948;2023-08-31T10:57:37;100642.56;;;30.64;48.09
71344;BME280;59146;43.850;25.948;2023-08-31T11:00:05;100628.91;;;30.58;46.81
71344;BME280;59146;43.850;25.948;2023-08-31T11:02:34;100621.78;;;30.95;45.45
71344;BME280;59146;43.850;25.948;2023-08-31T11:05:01;100635.56;;;30.81;46.17
71344;BME280;59146;43.850;25.948;2023-08-31T11:07:30;100620.72;;;30.72;46.38
71344;BME280;59146;43.850;25.948;2023-08-31T11:12:41;100576.59;;;31.09;44.40
71344;BME280;59146;43.850;25.948;2023-08-31T11:15:08;100564.72;;;31.16;43.66
71344;BME280;59146;43.850;25.948;2023-08-31T11:17:33;100583.91;;;31.63;42.54
71344;BME280;59146;43.850;25.948;2023-08-31T11:20:00;100585.22;;;31.72;42.40
71344;BME280;59146;43.850;25.948;2023-08-31T11:22:27;100563.06;;;31.33;41.53
71344;BME280;59146;43.850;25.948;2023-08-31T11:24:53;100548.50;;;31.53;40.68
71344;BME280;59146;43.850;25.948;2023-08-31T11:27:19;100602.44;;;31.89;40.52
71344;BME280;59146;43.850;25.948;2023-08-31T11:29:45;100595.63;;;32.16;39.71
71344;BME280;59146;43.850;25.948;2023-08-31T11:32:11;100584.19;;;32.44;38.84
71344;BME280;59146;43.850;25.948;2023-08-31T11:34:45;100563.06;;;32.52;37.66
71344;BME280;59146;43.850;25.948;2023-08-31T11:37:12;100597.75;;;32.67;38.13
71344;BME280;59146;43.850;25.948;2023-08-31T11:39:53;100599.66;;;32.78;38.63
71344;BME280;59146;43.850;25.948;2023-08-31T11:42:20;100454.91;;;31.76;35.84
71344;BME280;59146;43.850;25.948;2023-08-31T11:44:47;100449.66;;;31.22;36.64
71344;BME280;59146;43.850;25.948;2023-08-31T11:47:14;100572.84;;;32.12;34.98
71344;BME280;59146;43.850;25.948;2023-08-31T11:49:43;100542.84;;;31.72;36.50
71344;BME280;59146;43.850;25.948;2023-08-31T11:52:10;100579.25;;;31.52;37.07
71344;BME280;59146;43.850;25.948;2023-08-31T11:54:42;100568.06;;;31.12;37.08
71344;BME280;59146;43.850;25.948;2023-08-31T11:57:09;100569.19;;;31.22;36.71
71344;BME280;59146;43.850;25.948;2023-08-31T11:59:38;100565.47;;;30.81;37.23
71344;BME280;59146;43.850;25.948;2023-08-31T12:02:08;100599.38;;;31.13;37.08
71344;BME280;59146;43.850;25.948;2023-08-31T12:04:42;100537.47;;;31.36;38.29
71344;BME280;59146;43.850;25.948;2023-08-31T12:07:11;100571.31;;;31.86;35.68
71344;BME280;59146;43.850;25.948;2023-08-31T12:09:37;100556.78;;;31.40;36.59
71344;BME280;59146;43.850;25.948;2023-08-31T12:12:03;100516.88;;;30.63;37.01
71344;BME280;59146;43.850;25.948;2023-08-31T12:14:31;100526.06;;;30.37;36.15
71344;BME280;59146;43.850;25.948;2023-08-31T12:17:01;100552.78;;;30.38;36.33
71344;BME280;59146;43.850;25.948;2023-08-31T12:19:28;100564.94;;;30.47;37.00
71344;BME280;59146;43.850;25.948;2023-08-31T12:21:55;100589.97;;;30.79;36.17
71344;BME280;59146;43.850;25.948;2023-08-31T12:24:21;100574.66;;;30.98;37.01
71344;BME280;59146;43.850;25.948;2023-08-31T12:26:47;100546.44;;;30.76;36.24
71344;BME280;59146;43.850;25.948;2023-08-31T12:29:13;100543.31;;;31.15;37.39
71344;BME280;59146;43.850;25.948;2023-08-31T12:31:38;100538.09;;;31.20;34.23
71344;BME280;59146;43.850;25.948;2023-08-31T12:34:04;100548.69;;;31.40;35.17
71344;BME280;59146;43.850;25.948;2023-08-31T12:36:32;100547.31;;;31.49;34.13
71344;BME280;59146;43.850;25.948;2023-08-31T12:38:57;100578.06;;;31.48;34.58
71344;BME280;59146;43.850;25.948;2023-08-31T12:41:29;100536.88;;;31.34;35.44
71344;BME280;59146;43.850;25.948;2023-08-31T12:43:54;100552.19;;;31.58;34.51
71344;BME280;59146;43.850;25.948;2023-08-31T12:46:20;100558.69;;;31.69;34.65
71344;BME280;59146;43.850;25.948;2023-08-31T12:48:45;100518.91;;;31.10;34.36
71344;BME280;59146;43.850;25.948;2023-08-31T12:51:10;100553.38;;;31.26;34.12
71344;BME280;59146;43.850;25.948;2023-08-31T12:53:39;100573.25;;;31.50;34.03
71344;BME280;59146;43.850;25.948;2023-08-31T12:56:05;100576.19;;;31.48;33.51